Nearby METAR Reports

 

EGVO - Odiham Raf, United Kingdom
Distance from station: ESE 6mi, 10km
Updated: Sun, 23-Jul-2017 16:50 BST
Partly Cloudy
Partly Cloudy
 Wind from WSW
Wind: WSW 10 mph , 17 km/h
Temperature: 61°F , 16°C
Dew Point: 57°F , 14°C
Humidity: 88%
Barometer: 29.88 inHg , 1012 hPa
Clouds: Partly Cloudy
Visibility: 6 miles , 10 km
Cloud details: Partly Cloudy 800 ft
Partly Cloudy 2500 ft
2017/07/23 15:50 EGVO 231550Z 24009KT 9999 SCT008 SCT025CB 16/14 Q1012 GRN TEMPO 7000 SHRA GRN
EGLF - Farnborough, United Kingdom
Distance from station: E 14mi, 22km
Updated: Sun, 23-Jul-2017 17:20 BST
Nearby showers, Partly cloudy
Nearby showers, Partly cloudy
 Wind from WSW
Wind: WSW 10 mph , 17 km/h
Temperature: 61°F , 16°C
Dew Point: 57°F , 14°C
Humidity: 88%
Barometer: 29.88 inHg , 1012 hPa
Summary: Nearby Showers
Clouds: Partly Cloudy
Visibility: 6 miles , 10 km
Cloud details: Partly Cloudy 1300 ft
2017/07/23 16:20 EGLF 231620Z 25009KT 9999 VCSH SCT013 16/14 Q1012
 
EGVP - Middle Wallop, United Kingdom
Distance from station: WSW 23mi, 36km
Updated: Sun, 23-Jul-2017 16:50 BST
Mostly Cloudy
Mostly Cloudy
 Wind from SSW
Wind: SSW 3 mph , 6 km/h
Temperature: 57°F , 14°C
Dew Point: 55°F , 13°C
Humidity: 94%
Barometer: 29.91 inHg , 1013 hPa
Clouds: Mostly Cloudy
Visibility: 6 miles , 10 km
Cloud details: Mostly Cloudy 4800 ft
2017/07/23 15:50 EGVP 231550Z AUTO 21003KT 9999 // BKN048/// 14/13 Q1013
EGHI - Southampton Wx C, United Kingdom
Distance from station: SSW 24mi, 39km
Updated: Sun, 23-Jul-2017 17:20 BST
Rain, Few clouds
Rain, Few clouds
 Wind from varies
Wind: varies 2 mph , 4 km/h
Temperature: 54°F , 12°C
Dew Point: 52°F , 11°C
Humidity: 94%
Barometer: 29.91 inHg , 1013 hPa
Summary: Rain
Clouds: Few Clouds
Visibility: 4 miles , 6 km
Cloud details: Few Clouds 1200 ft
Partly Cloudy 2500 ft
Few Clouds 4800 ft
2017/07/23 16:20 EGHI 231620Z VRB02KT 6000 RA FEW012 SCT025 FEW048CB 12/11 Q1013
 
EGUB - Benson Raf, United Kingdom
Distance from station: N 24mi, 39km
Updated: Sun, 23-Jul-2017 16:50 BST
Light rain, Showers, Mostly cloudy
Light rain, Showers, Mostly cloudy
 Wind from WSW
Wind: WSW 9 mph , 15 km/h
Temperature: 64°F , 18°C
Dew Point: 57°F , 14°C
Humidity: 78%
Barometer: 29.85 inHg , 1011 hPa
Summary: Light rain, Showers
Clouds: Mostly Cloudy
Visibility: 6 miles , 10 km
Cloud details: Few Clouds 2100 ft
Partly Cloudy 3000 ft
Mostly Cloudy 6000 ft
2017/07/23 15:50 EGUB 231550Z 24008KT 9999 -SHRA FEW021 SCT030 BKN060 18/14 Q1011 BLU
EGDM - Boscombe Down, United Kingdom
Distance from station: WSW 29mi, 47km
Updated: Sun, 23-Jul-2017 16:50 BST
Mostly Cloudy
Mostly Cloudy
 Wind from WSW
Wind: WSW 3 mph , 6 km/h
Temperature: 59°F , 15°C
Dew Point: 57°F , 14°C
Humidity: 94%
Barometer: 29.91 inHg , 1013 hPa
Clouds: Mostly Cloudy
Visibility: 6 miles , 10 km
Cloud details: Few Clouds 4000 ft
Mostly Cloudy 6000 ft
2017/07/23 15:50 EGDM 231550Z AUTO 25003KT 9999 FEW040/// BKN060/// 15/14 Q1013 RERA
 
EGLL - London/Heathrow, United Kingdom
Distance from station: ENE 31mi, 51km
Updated: Sun, 23-Jul-2017 17:20 BST
Thunderstorm
Thunderstorm
 Wind from WSW
Wind: WSW 13 mph , 20 km/h
Temperature: 66°F , 19°C
Dew Point: 55°F , 13°C
Humidity: 68%
Barometer: 29.85 inHg , 1011 hPa
Clouds: Thunderstorm
Visibility: 6 miles , 10 km
Cloud details: Few Clouds 4400 ft
2017/07/23 16:20 EGLL 231620Z AUTO 24011KT 9999 FEW044/// //////CB 19/13 Q1011 TEMPO SHRA
EGWU - Northolt Raf, United Kingdom
Distance from station: NE 35mi, 56km
Updated: Sun, 23-Jul-2017 16:50 BST
Nearby showers, Mostly cloudy
Nearby showers, Mostly cloudy
 Wind from W
Wind: W 14 mph , 22 km/h
Temperature: 66°F , 19°C
Dew Point: 52°F , 11°C
Humidity: 60%
Barometer: 29.85 inHg , 1011 hPa
Summary: Nearby Showers
Clouds: Mostly Cloudy
Visibility: 6 miles , 10 km
Cloud details: Partly Cloudy 2800 ft
Mostly Cloudy 6000 ft
Mostly Cloudy 8000 ft
2017/07/23 15:50 EGWU 231550Z 26012KT 9999 VCSH SCT028 BKN060 BKN080 19/11 Q1011 NOSIG
 
EGVA - Fairford Raf, United Kingdom
Distance from station: NW 40mi, 65km
Updated: Sun, 23-Jul-2017 16:58 BST
Few Clouds
Few Clouds
 Wind from SW
Wind: SW 8 mph , 13 km/h
Temperature: 61°F , 16°C
Dew Point: 57°F , 14°C
Humidity: 88%
Barometer: 29.88 inHg , 1011.9 hPa
Clouds: Few Clouds
Visibility: 6 miles , 10 km
Cloud details: Few Clouds 8500 ft
2017/07/23 15:58 EGVA 231558Z AUTO 23007KT 9999 FEW085 16/14 A2988 RMK AO2 RAE22DZB22E24 SLP122 P0002 T01630139 $
EGKK - London/Gatwick A, United Kingdom
Distance from station: ESE 41mi, 66km
Updated: Sun, 23-Jul-2017 17:20 BST
Partly Cloudy
Partly Cloudy
 Wind from SW
Wind: SW 9 mph , 15 km/h
Temperature: 63°F , 17°C
Dew Point: 57°F , 14°C
Humidity: 83%
Barometer: 29.85 inHg , 1011 hPa
Clouds: Partly Cloudy
Visibility: 6 miles , 10 km
Cloud details: Few Clouds 1500 ft
Partly Cloudy 2000 ft
2017/07/23 16:20 EGKK 231620Z 23008KT 9999 FEW015 SCT020 17/14 Q1011
 
EGVN - Brize Norton Raf, United Kingdom
Distance from station: NNW 41mi, 66km
Updated: Sun, 23-Jul-2017 16:50 BST
Mostly Cloudy
Mostly Cloudy
 Wind from W
Wind: W 9 mph , 15 km/h
Temperature: 64°F , 18°C
Dew Point: 52°F , 11°C
Humidity: 64%
Barometer: 29.85 inHg , 1011 hPa
Clouds: Mostly Cloudy
Visibility: 6 miles , 10 km
Cloud details: Few Clouds 2800 ft
Partly Cloudy 3600 ft
Mostly Cloudy 30000 ft
2017/07/23 15:50 EGVN 231550Z 26008KT 9999 FEW028CB SCT036 BKN300 18/11 Q1011 BLU NOSIG
EGKA - Shoreham-By-Sea, United Kingdom
Distance from station: SE 45mi, 73km
Updated: Sun, 23-Jul-2017 17:20 BST
Few Clouds
Few Clouds
 Wind from W
Wind: W 12 mph , 19 km/h
Temperature: 61°F , 16°C
Dew Point: 57°F , 14°C
Humidity: 88%
Barometer: 29.88 inHg , 1012 hPa
Clouds: Few Clouds
Visibility: 6 miles , 10 km
Cloud details: Few Clouds 1500 ft
2017/07/23 16:20 EGKA 231620Z 27010KT 9999 FEW015 16/14 Q1012
 
EGHH - Bournemouth Airp, United Kingdom
Distance from station: SW 46mi, 75km
Updated: Sun, 23-Jul-2017 17:20 BST
Mostly Cloudy
Mostly Cloudy
 Wind from WSW
Wind: WSW 8 mph , 13 km/h
Temperature: 61°F , 16°C
Dew Point: 57°F , 14°C
Humidity: 88%
Barometer: 29.91 inHg , 1013 hPa
Clouds: Mostly Cloudy
Visibility: 6 miles , 10 km
Cloud details: Mostly Cloudy 4700 ft
2017/07/23 16:20 EGHH 231620Z 25007KT 9999 BKN047 16/14 Q1013
EGKB - Biggin Hill, United Kingdom
Distance from station: E 48mi, 77km
Updated: Sun, 23-Jul-2017 17:20 BST
Partly Cloudy
Partly Cloudy
 Wind from SW
Wind: SW 8 mph , 13 km/h
Temperature: 63°F , 17°C
Dew Point: 55°F , 13°C
Humidity: 77%
Barometer: 29.88 inHg , 1012 hPa
Clouds: Partly Cloudy
Visibility: 6 miles , 10 km
Cloud details: Partly Cloudy 1800 ft
2017/07/23 16:20 EGKB 231620Z 23007KT 200V260 9999 SCT018 17/13 Q1012

Metar display script from Saratoga-Weather.org